sensor_id;sensor_type;location;lat;lon;timestamp;P1;durP1;ratioP1;P2;durP2;ratioP2
79375;SDS011;68846;53.150;18.136;2024-01-16T00:00:43;1.70;;;0.70;;
79375;SDS011;68846;53.150;18.136;2024-01-16T00:03:31;0.70;;;0.60;;
79375;SDS011;68846;53.150;18.136;2024-01-16T00:06:00;3.00;;;0.90;;
79375;SDS011;68846;53.150;18.136;2024-01-16T00:08:28;1.40;;;0.60;;
79375;SDS011;68846;53.150;18.136;2024-01-16T00:10:56;0.60;;;0.50;;
79375;SDS011;68846;53.150;18.136;2024-01-16T00:13:24;1.00;;;0.60;;
79375;SDS011;68846;53.150;18.136;2024-01-16T00:15:52;0.60;;;0.30;;
79375;SDS011;68846;53.150;18.136;2024-01-16T00:18:20;0.90;;;0.30;;
79375;SDS011;68846;53.150;18.136;2024-01-16T00:20:48;0.30;;;0.30;;
79375;SDS011;68846;53.150;18.136;2024-01-16T00:23:16;0.90;;;0.50;;
79375;SDS011;68846;53.150;18.136;2024-01-16T00:25:44;0.60;;;0.30;;
79375;SDS011;68846;53.150;18.136;2024-01-16T00:28:12;0.60;;;0.30;;
79375;SDS011;68846;53.150;18.136;2024-01-16T00:30:40;0.70;;;0.50;;
79375;SDS011;68846;53.150;18.136;2024-01-16T00:33:08;0.80;;;0.40;;
79375;SDS011;68846;53.150;18.136;2024-01-16T00:35:37;0.50;;;0.30;;
79375;SDS011;68846;53.150;18.136;2024-01-16T00:38:05;0.50;;;0.30;;
79375;SDS011;68846;53.150;18.136;2024-01-16T00:40:33;0.90;;;0.50;;
79375;SDS011;68846;53.150;18.136;2024-01-16T00:43:01;0.70;;;0.40;;
79375;SDS011;68846;53.150;18.136;2024-01-16T00:45:29;1.70;;;0.60;;
79375;SDS011;68846;53.150;18.136;2024-01-16T00:47:58;0.30;;;0.30;;
79375;SDS011;68846;53.150;18.136;2024-01-16T00:50:26;0.60;;;0.50;;
79375;SDS011;68846;53.150;18.136;2024-01-16T00:52:54;1.20;;;0.50;;
79375;SDS011;68846;53.150;18.136;2024-01-16T00:55:22;1.30;;;0.40;;
79375;SDS011;68846;53.150;18.136;2024-01-16T00:57:51;1.10;;;0.50;;
79375;SDS011;68846;53.150;18.136;2024-01-16T01:00:19;0.90;;;0.50;;
79375;SDS011;68846;53.150;18.136;2024-01-16T01:02:47;0.90;;;0.50;;
79375;SDS011;68846;53.150;18.136;2024-01-16T01:05:14;1.10;;;0.40;;
79375;SDS011;68846;53.150;18.136;2024-01-16T01:07:43;1.10;;;0.60;;
79375;SDS011;68846;53.150;18.136;2024-01-16T01:10:11;1.40;;;0.50;;
79375;SDS011;68846;53.150;18.136;2024-01-16T01:12:39;0.30;;;0.30;;
79375;SDS011;68846;53.150;18.136;2024-01-16T01:15:07;0.60;;;0.40;;
79375;SDS011;68846;53.150;18.136;2024-01-16T01:17:36;0.20;;;0.20;;
79375;SDS011;68846;53.150;18.136;2024-01-16T01:20:04;1.40;;;0.40;;
79375;SDS011;68846;53.150;18.136;2024-01-16T01:22:33;0.20;;;0.20;;
79375;SDS011;68846;53.150;18.136;2024-01-16T01:25:01;1.00;;;0.80;;
79375;SDS011;68846;53.150;18.136;2024-01-16T01:27:29;0.40;;;0.20;;
79375;SDS011;68846;53.150;18.136;2024-01-16T01:29:57;1.10;;;0.40;;
79375;SDS011;68846;53.150;18.136;2024-01-16T01:32:25;0.90;;;0.40;;
79375;SDS011;68846;53.150;18.136;2024-01-16T01:34:54;0.50;;;0.50;;
79375;SDS011;68846;53.150;18.136;2024-01-16T01:37:22;0.80;;;0.60;;
79375;SDS011;68846;53.150;18.136;2024-01-16T01:39:50;0.60;;;0.40;;
79375;SDS011;68846;53.150;18.136;2024-01-16T01:42:19;1.00;;;0.50;;
79375;SDS011;68846;53.150;18.136;2024-01-16T01:44:47;0.90;;;0.70;;
79375;SDS011;68846;53.150;18.136;2024-01-16T01:47:15;2.40;;;0.40;;
79375;SDS011;68846;53.150;18.136;2024-01-16T01:49:44;1.60;;;0.50;;
79375;SDS011;68846;53.150;18.136;2024-01-16T01:52:12;3.10;;;0.90;;
79375;SDS011;68846;53.150;18.136;2024-01-16T01:54:40;3.70;;;0.70;;
79375;SDS011;68846;53.150;18.136;2024-01-16T01:57:08;0.90;;;0.60;;
79375;SDS011;68846;53.150;18.136;2024-01-16T01:59:37;4.10;;;0.60;;
79375;SDS011;68846;53.150;18.136;2024-01-16T02:02:05;0.50;;;0.30;;
79375;SDS011;68846;53.150;18.136;2024-01-16T02:04:32;0.90;;;0.50;;
79375;SDS011;68846;53.150;18.136;2024-01-16T02:07:01;0.60;;;0.40;;
79375;SDS011;68846;53.150;18.136;2024-01-16T02:09:31;1.00;;;0.60;;
79375;SDS011;68846;53.150;18.136;2024-01-16T02:12:00;0.90;;;0.50;;
79375;SDS011;68846;53.150;18.136;2024-01-16T02:14:28;3.10;;;0.50;;
79375;SDS011;68846;53.150;18.136;2024-01-16T02:16:56;0.60;;;0.50;;
79375;SDS011;68846;53.150;18.136;2024-01-16T02:19:24;0.80;;;0.50;;
79375;SDS011;68846;53.150;18.136;2024-01-16T02:21:56;0.50;;;0.40;;
79375;SDS011;68846;53.150;18.136;2024-01-16T02:24:28;1.00;;;0.50;;
79375;SDS011;68846;53.150;18.136;2024-01-16T02:26:56;0.70;;;0.40;;
79375;SDS011;68846;53.150;18.136;2024-01-16T02:29:24;2.00;;;0.40;;
79375;SDS011;68846;53.150;18.136;2024-01-16T02:31:52;1.00;;;0.50;;
79375;SDS011;68846;53.150;18.136;2024-01-16T02:34:20;1.90;;;0.40;;
79375;SDS011;68846;53.150;18.136;2024-01-16T02:36:48;1.00;;;0.50;;
79375;SDS011;68846;53.150;18.136;2024-01-16T02:39:16;1.60;;;0.60;;
79375;SDS011;68846;53.150;18.136;2024-01-16T02:41:44;1.80;;;0.50;;
79375;SDS011;68846;53.150;18.136;2024-01-16T02:44:12;0.70;;;0.50;;
79375;SDS011;68846;53.150;18.136;2024-01-16T02:46:40;0.70;;;0.70;;
79375;SDS011;68846;53.150;18.136;2024-01-16T02:49:08;0.80;;;0.40;;
79375;SDS011;68846;53.150;18.136;2024-01-16T02:51:36;1.70;;;0.50;;
79375;SDS011;68846;53.150;18.136;2024-01-16T02:54:06;1.50;;;0.50;;
79375;SDS011;68846;53.150;18.136;2024-01-16T02:56:35;0.50;;;0.30;;
79375;SDS011;68846;53.150;18.136;2024-01-16T03:03:35;0.30;;;0.30;;
79375;SDS011;68846;53.150;18.136;2024-01-16T03:06:03;1.30;;;0.40;;
79375;SDS011;68846;53.150;18.136;2024-01-16T03:13:30;2.00;;;0.60;;
79375;SDS011;68846;53.150;18.136;2024-01-16T03:15:57;0.80;;;0.60;;
79375;SDS011;68846;53.150;18.136;2024-01-16T03:21:49;3.40;;;0.40;;
79375;SDS011;68846;53.150;18.136;2024-01-16T03:24:18;0.60;;;0.40;;
79375;SDS011;68846;53.150;18.136;2024-01-16T03:26:46;0.50;;;0.50;;
79375;SDS011;68846;53.150;18.136;2024-01-16T03:29:14;0.70;;;0.70;;
79375;SDS011;68846;53.150;18.136;2024-01-16T03:31:42;0.20;;;0.20;;
79375;SDS011;68846;53.150;18.136;2024-01-16T03:34:10;0.90;;;0.50;;
79375;SDS011;68846;53.150;18.136;2024-01-16T03:36:37;0.60;;;0.50;;
79375;SDS011;68846;53.150;18.136;2024-01-16T03:39:06;1.50;;;0.50;;
79375;SDS011;68846;53.150;18.136;2024-01-16T03:41:35;0.40;;;0.40;;
79375;SDS011;68846;53.150;18.136;2024-01-16T03:44:03;3.30;;;0.60;;
79375;SDS011;68846;53.150;18.136;2024-01-16T03:50:17;1.40;;;0.40;;
79375;SDS011;68846;53.150;18.136;2024-01-16T03:52:45;0.50;;;0.40;;
79375;SDS011;68846;53.150;18.136;2024-01-16T03:55:13;0.80;;;0.50;;
79375;SDS011;68846;53.150;18.136;2024-01-16T03:57:41;1.30;;;0.70;;
79375;SDS011;68846;53.150;18.136;2024-01-16T04:00:11;1.30;;;0.50;;
79375;SDS011;68846;53.150;18.136;2024-01-16T04:02:40;2.80;;;0.60;;
79375;SDS011;68846;53.150;18.136;2024-01-16T04:05:08;0.40;;;0.40;;
79375;SDS011;68846;53.150;18.136;2024-01-16T04:07:36;1.10;;;0.60;;
79375;SDS011;68846;53.150;18.136;2024-01-16T04:10:04;1.50;;;0.30;;
79375;SDS011;68846;53.150;18.136;2024-01-16T04:17:07;2.30;;;0.30;;
79375;SDS011;68846;53.150;18.136;2024-01-16T04:23:22;2.00;;;0.40;;
79375;SDS011;68846;53.150;18.136;2024-01-16T04:29:33;0.80;;;0.40;;
79375;SDS011;68846;53.150;18.136;2024-01-16T04:35:47;1.70;;;0.50;;
79375;SDS011;68846;53.150;18.136;2024-01-16T04:38:15;0.80;;;0.50;;
79375;SDS011;68846;53.150;18.136;2024-01-16T04:40:43;2.70;;;0.70;;
79375;SDS011;68846;53.150;18.136;2024-01-16T04:43:11;1.30;;;0.40;;
79375;SDS011;68846;53.150;18.136;2024-01-16T04:45:39;1.50;;;0.80;;
79375;SDS011;68846;53.150;18.136;2024-01-16T04:53:03;0.50;;;0.50;;
79375;SDS011;68846;53.150;18.136;2024-01-16T04:55:32;1.10;;;0.70;;
79375;SDS011;68846;53.150;18.136;2024-01-16T04:58:00;1.70;;;0.70;;
79375;SDS011;68846;53.150;18.136;2024-01-16T05:00:28;3.90;;;1.20;;
79375;SDS011;68846;53.150;18.136;2024-01-16T05:02:56;1.10;;;0.60;;
79375;SDS011;68846;53.150;18.136;2024-01-16T05:05:26;2.80;;;0.90;;
79375;SDS011;68846;53.150;18.136;2024-01-16T05:07:53;1.30;;;0.80;;
79375;SDS011;68846;53.150;18.136;2024-01-16T05:10:21;3.20;;;1.10;;
79375;SDS011;68846;53.150;18.136;2024-01-16T05:12:49;2.70;;;1.10;;
79375;SDS011;68846;53.150;18.136;2024-01-16T05:23:58;1.10;;;0.70;;
79375;SDS011;68846;53.150;18.136;2024-01-16T05:26:27;1.40;;;0.70;;
79375;SDS011;68846;53.150;18.136;2024-01-16T05:28:55;1.00;;;0.60;;
79375;SDS011;68846;53.150;18.136;2024-01-16T05:31:23;1.20;;;0.70;;
79375;SDS011;68846;53.150;18.136;2024-01-16T05:33:51;1.40;;;0.70;;
79375;SDS011;68846;53.150;18.136;2024-01-16T05:36:19;3.40;;;0.80;;
79375;SDS011;68846;53.150;18.136;2024-01-16T05:38:47;2.40;;;1.00;;
79375;SDS011;68846;53.150;18.136;2024-01-16T05:41:43;1.10;;;0.90;;
79375;SDS011;68846;53.150;18.136;2024-01-16T05:44:11;2.60;;;1.00;;
79375;SDS011;68846;53.150;18.136;2024-01-16T05:46:39;1.40;;;0.80;;
79375;SDS011;68846;53.150;18.136;2024-01-16T05:49:07;5.10;;;1.10;;
79375;SDS011;68846;53.150;18.136;2024-01-16T05:51:36;0.90;;;0.60;;
79375;SDS011;68846;53.150;18.136;2024-01-16T05:54:05;1.20;;;0.80;;
79375;SDS011;68846;53.150;18.136;2024-01-16T05:56:33;2.00;;;0.70;;
79375;SDS011;68846;53.150;18.136;2024-01-16T05:59:01;1.80;;;0.60;;
79375;SDS011;68846;53.150;18.136;2024-01-16T06:01:29;0.80;;;0.70;;
79375;SDS011;68846;53.150;18.136;2024-01-16T06:03:57;1.40;;;0.60;;
79375;SDS011;68846;53.150;18.136;2024-01-16T06:06:25;2.20;;;0.80;;
79375;SDS011;68846;53.150;18.136;2024-01-16T06:08:53;4.70;;;1.00;;
79375;SDS011;68846;53.150;18.136;2024-01-16T06:11:33;1.30;;;0.80;;
79375;SDS011;68846;53.150;18.136;2024-01-16T06:14:05;3.20;;;0.80;;
79375;SDS011;68846;53.150;18.136;2024-01-16T06:16:36;1.70;;;0.90;;
79375;SDS011;68846;53.150;18.136;2024-01-16T06:19:06;2.70;;;1.10;;
79375;SDS011;68846;53.150;18.136;2024-01-16T06:21:35;2.70;;;0.90;;
79375;SDS011;68846;53.150;18.136;2024-01-16T06:24:04;1.60;;;0.70;;
79375;SDS011;68846;53.150;18.136;2024-01-16T06:26:32;5.00;;;1.30;;
79375;SDS011;68846;53.150;18.136;2024-01-16T06:29:00;2.20;;;0.90;;
79375;SDS011;68846;53.150;18.136;2024-01-16T06:31:28;2.60;;;1.30;;
79375;SDS011;68846;53.150;18.136;2024-01-16T06:33:56;3.80;;;1.10;;
79375;SDS011;68846;53.150;18.136;2024-01-16T06:36:24;1.90;;;1.30;;
79375;SDS011;68846;53.150;18.136;2024-01-16T06:38:54;2.10;;;1.20;;
79375;SDS011;68846;53.150;18.136;2024-01-16T06:41:22;2.20;;;1.20;;
79375;SDS011;68846;53.150;18.136;2024-01-16T06:43:50;2.20;;;1.20;;
79375;SDS011;68846;53.150;18.136;2024-01-16T06:46:19;2.90;;;1.40;;
79375;SDS011;68846;53.150;18.136;2024-01-16T06:48:49;5.50;;;1.30;;
79375;SDS011;68846;53.150;18.136;2024-01-16T06:51:17;2.30;;;1.00;;
79375;SDS011;68846;53.150;18.136;2024-01-16T06:53:45;2.70;;;1.10;;
79375;SDS011;68846;53.150;18.136;2024-01-16T06:56:14;3.10;;;1.60;;
79375;SDS011;68846;53.150;18.136;2024-01-16T06:58:43;2.10;;;0.80;;
79375;SDS011;68846;53.150;18.136;2024-01-16T07:01:11;4.70;;;1.50;;
79375;SDS011;68846;53.150;18.136;2024-01-16T07:03:39;2.40;;;2.00;;
79375;SDS011;68846;53.150;18.136;2024-01-16T07:06:08;2.00;;;1.20;;
79375;SDS011;68846;53.150;18.136;2024-01-16T07:08:37;1.60;;;1.10;;
79375;SDS011;68846;53.150;18.136;2024-01-16T07:11:05;3.50;;;1.50;;
79375;SDS011;68846;53.150;18.136;2024-01-16T07:13:36;3.00;;;1.00;;
79375;SDS011;68846;53.150;18.136;2024-01-16T07:16:04;3.70;;;1.60;;
79375;SDS011;68846;53.150;18.136;2024-01-16T07:18:32;4.10;;;1.10;;
79375;SDS011;68846;53.150;18.136;2024-01-16T07:21:00;3.10;;;0.90;;
79375;SDS011;68846;53.150;18.136;2024-01-16T07:23:30;3.00;;;1.10;;
79375;SDS011;68846;53.150;18.136;2024-01-16T07:25:58;2.60;;;1.10;;
79375;SDS011;68846;53.150;18.136;2024-01-16T07:28:26;2.90;;;1.00;;
79375;SDS011;68846;53.150;18.136;2024-01-16T07:35:52;1.40;;;0.90;;
79375;SDS011;68846;53.150;18.136;2024-01-16T07:38:21;2.20;;;1.30;;
79375;SDS011;68846;53.150;18.136;2024-01-16T07:40:49;2.60;;;1.30;;
79375;SDS011;68846;53.150;18.136;2024-01-16T07:43:17;1.10;;;0.80;;
79375;SDS011;68846;53.150;18.136;2024-01-16T07:45:45;2.00;;;1.80;;
79375;SDS011;68846;53.150;18.136;2024-01-16T07:48:12;2.60;;;1.10;;
79375;SDS011;68846;53.150;18.136;2024-01-16T07:50:40;1.20;;;0.90;;
79375;SDS011;68846;53.150;18.136;2024-01-16T07:53:08;2.50;;;0.90;;
79375;SDS011;68846;53.150;18.136;2024-01-16T07:55:36;2.10;;;1.40;;
79375;SDS011;68846;53.150;18.136;2024-01-16T07:58:04;2.60;;;1.20;;
79375;SDS011;68846;53.150;18.136;2024-01-16T08:00:34;2.70;;;1.20;;
79375;SDS011;68846;53.150;18.136;2024-01-16T08:03:07;2.50;;;1.00;;
79375;SDS011;68846;53.150;18.136;2024-01-16T08:05:36;4.20;;;1.70;;
79375;SDS011;68846;53.150;18.136;2024-01-16T08:08:04;2.90;;;1.60;;
79375;SDS011;68846;53.150;18.136;2024-01-16T08:10:33;2.50;;;1.40;;
79375;SDS011;68846;53.150;18.136;2024-01-16T08:13:00;5.00;;;1.70;;
79375;SDS011;68846;53.150;18.136;2024-01-16T08:15:28;4.80;;;2.40;;
79375;SDS011;68846;53.150;18.136;2024-01-16T08:17:56;3.70;;;1.80;;
79375;SDS011;68846;53.150;18.136;2024-01-16T08:20:24;3.00;;;1.80;;
79375;SDS011;68846;53.150;18.136;2024-01-16T08:22:53;3.10;;;1.40;;
79375;SDS011;68846;53.150;18.136;2024-01-16T08:25:21;3.50;;;1.60;;
79375;SDS011;68846;53.150;18.136;2024-01-16T08:27:49;4.10;;;1.60;;
79375;SDS011;68846;53.150;18.136;2024-01-16T08:30:17;4.60;;;1.70;;
79375;SDS011;68846;53.150;18.136;2024-01-16T08:32:45;4.20;;;1.80;;
79375;SDS011;68846;53.150;18.136;2024-01-16T08:35:14;2.60;;;1.20;;
79375;SDS011;68846;53.150;18.136;2024-01-16T08:37:42;3.80;;;1.80;;
79375;SDS011;68846;53.150;18.136;2024-01-16T08:40:10;4.30;;;1.40;;
79375;SDS011;68846;53.150;18.136;2024-01-16T08:42:39;2.70;;;1.20;;
79375;SDS011;68846;53.150;18.136;2024-01-16T08:45:07;3.60;;;1.30;;
79375;SDS011;68846;53.150;18.136;2024-01-16T08:47:35;3.50;;;1.20;;
79375;SDS011;68846;53.150;18.136;2024-01-16T08:50:28;2.90;;;1.30;;
79375;SDS011;68846;53.150;18.136;2024-01-16T08:52:56;1.70;;;1.10;;
79375;SDS011;68846;53.150;18.136;2024-01-16T08:55:24;2.50;;;1.10;;
79375;SDS011;68846;53.150;18.136;2024-01-16T08:57:51;3.10;;;0.80;;
79375;SDS011;68846;53.150;18.136;2024-01-16T09:00:19;3.10;;;1.00;;
79375;SDS011;68846;53.150;18.136;2024-01-16T09:02:48;3.40;;;1.10;;
79375;SDS011;68846;53.150;18.136;2024-01-16T09:05:16;2.10;;;0.90;;
79375;SDS011;68846;53.150;18.136;2024-01-16T09:07:44;3.70;;;1.10;;
79375;SDS011;68846;53.150;18.136;2024-01-16T09:10:13;4.50;;;1.40;;
79375;SDS011;68846;53.150;18.136;2024-01-16T09:12:41;1.90;;;1.20;;
79375;SDS011;68846;53.150;18.136;2024-01-16T09:15:09;3.30;;;1.20;;
79375;SDS011;68846;53.150;18.136;2024-01-16T09:17:37;2.90;;;1.30;;
79375;SDS011;68846;53.150;18.136;2024-01-16T09:20:07;3.90;;;1.20;;
79375;SDS011;68846;53.150;18.136;2024-01-16T09:22:35;2.70;;;1.00;;
79375;SDS011;68846;53.150;18.136;2024-01-16T09:25:03;1.80;;;1.20;;
79375;SDS011;68846;53.150;18.136;2024-01-16T09:27:31;4.90;;;1.20;;
79375;SDS011;68846;53.150;18.136;2024-01-16T09:29:59;2.30;;;1.10;;
79375;SDS011;68846;53.150;18.136;2024-01-16T09:32:27;2.20;;;1.10;;
79375;SDS011;68846;53.150;18.136;2024-01-16T09:34:56;4.20;;;1.20;;
79375;SDS011;68846;53.150;18.136;2024-01-16T09:37:25;2.30;;;1.00;;
79375;SDS011;68846;53.150;18.136;2024-01-16T09:39:53;2.00;;;1.00;;
79375;SDS011;68846;53.150;18.136;2024-01-16T09:42:21;2.50;;;1.30;;
79375;SDS011;68846;53.150;18.136;2024-01-16T09:44:49;3.40;;;1.40;;
79375;SDS011;68846;53.150;18.136;2024-01-16T09:47:19;5.80;;;2.00;;
79375;SDS011;68846;53.150;18.136;2024-01-16T09:49:48;6.20;;;2.30;;
79375;SDS011;68846;53.150;18.136;2024-01-16T09:52:16;5.40;;;2.00;;
79375;SDS011;68846;53.150;18.136;2024-01-16T09:54:44;6.80;;;2.20;;
79375;SDS011;68846;53.150;18.136;2024-01-16T09:57:12;6.10;;;2.20;;
79375;SDS011;68846;53.150;18.136;2024-01-16T09:59:41;5.10;;;2.40;;
79375;SDS011;68846;53.150;18.136;2024-01-16T10:02:11;5.10;;;2.30;;
79375;SDS011;68846;53.150;18.136;2024-01-16T10:04:44;4.60;;;2.50;;
79375;SDS011;68846;53.150;18.136;2024-01-16T10:07:12;4.60;;;1.90;;
79375;SDS011;68846;53.150;18.136;2024-01-16T10:09:45;3.10;;;2.00;;
79375;SDS011;68846;53.150;18.136;2024-01-16T10:12:13;5.80;;;2.20;;
79375;SDS011;68846;53.150;18.136;2024-01-16T10:14:42;4.00;;;2.10;;
79375;SDS011;68846;53.150;18.136;2024-01-16T10:17:10;4.40;;;1.90;;
79375;SDS011;68846;53.150;18.136;2024-01-16T10:19:47;3.70;;;1.60;;
79375;SDS011;68846;53.150;18.136;2024-01-16T10:22:21;6.90;;;2.30;;
79375;SDS011;68846;53.150;18.136;2024-01-16T10:25:05;5.10;;;1.70;;
79375;SDS011;68846;53.150;18.136;2024-01-16T10:27:38;3.20;;;1.90;;
79375;SDS011;68846;53.150;18.136;2024-01-16T10:30:08;4.20;;;2.00;;
79375;SDS011;68846;53.150;18.136;2024-01-16T10:32:38;4.20;;;1.60;;
79375;SDS011;68846;53.150;18.136;2024-01-16T10:35:12;2.90;;;1.80;;
79375;SDS011;68846;53.150;18.136;2024-01-16T10:37:48;4.30;;;2.00;;
79375;SDS011;68846;53.150;18.136;2024-01-16T10:40:19;4.70;;;2.10;;
79375;SDS011;68846;53.150;18.136;2024-01-16T10:45:31;2.30;;;1.00;;
79375;SDS011;68846;53.150;18.136;2024-01-16T10:48:04;3.60;;;1.60;;
79375;SDS011;68846;53.150;18.136;2024-01-16T10:50:36;4.00;;;1.50;;
79375;SDS011;68846;53.150;18.136;2024-01-16T10:53:07;5.80;;;1.70;;
79375;SDS011;68846;53.150;18.136;2024-01-16T10:55:49;2.00;;;1.20;;
79375;SDS011;68846;53.150;18.136;2024-01-16T10:58:23;3.10;;;1.20;;
79375;SDS011;68846;53.150;18.136;2024-01-16T11:00:53;3.20;;;1.50;;
79375;SDS011;68846;53.150;18.136;2024-01-16T11:03:34;3.00;;;1.40;;
79375;SDS011;68846;53.150;18.136;2024-01-16T11:06:09;3.80;;;1.40;;
79375;SDS011;68846;53.150;18.136;2024-01-16T11:08:39;3.50;;;1.50;;
79375;SDS011;68846;53.150;18.136;2024-01-16T11:11:08;5.90;;;1.50;;
79375;SDS011;68846;53.150;18.136;2024-01-16T11:13:38;3.90;;;1.20;;
79375;SDS011;68846;53.150;18.136;2024-01-16T11:16:07;4.40;;;1.60;;
79375;SDS011;68846;53.150;18.136;2024-01-16T11:18:36;4.50;;;1.10;;
79375;SDS011;68846;53.150;18.136;2024-01-16T11:21:05;3.10;;;1.10;;
79375;SDS011;68846;53.150;18.136;2024-01-16T11:23:44;2.50;;;1.00;;
79375;SDS011;68846;53.150;18.136;2024-01-16T11:26:28;3.20;;;1.60;;
79375;SDS011;68846;53.150;18.136;2024-01-16T11:29:01;3.00;;;1.30;;
79375;SDS011;68846;53.150;18.136;2024-01-16T11:31:48;4.40;;;1.30;;
79375;SDS011;68846;53.150;18.136;2024-01-16T11:34:16;3.40;;;1.30;;
79375;SDS011;68846;53.150;18.136;2024-01-16T11:37:11;3.00;;;1.20;;
79375;SDS011;68846;53.150;18.136;2024-01-16T11:39:40;1.70;;;1.00;;
79375;SDS011;68846;53.150;18.136;2024-01-16T11:42:08;3.80;;;1.40;;
79375;SDS011;68846;53.150;18.136;2024-01-16T11:47:19;3.30;;;1.30;;
79375;SDS011;68846;53.150;18.136;2024-01-16T11:50:07;4.10;;;1.20;;
79375;SDS011;68846;53.150;18.136;2024-01-16T11:52:44;1.90;;;1.10;;
79375;SDS011;68846;53.150;18.136;2024-01-16T11:55:30;2.30;;;1.20;;
79375;SDS011;68846;53.150;18.136;2024-01-16T11:58:25;1.30;;;1.10;;
79375;SDS011;68846;53.150;18.136;2024-01-16T12:00:58;3.50;;;1.30;;
79375;SDS011;68846;53.150;18.136;2024-01-16T12:03:27;3.30;;;1.10;;
79375;SDS011;68846;53.150;18.136;2024-01-16T12:05:55;3.70;;;1.20;;
79375;SDS011;68846;53.150;18.136;2024-01-16T12:08:23;4.20;;;1.30;;
79375;SDS011;68846;53.150;18.136;2024-01-16T12:10:52;3.10;;;1.40;;
79375;SDS011;68846;53.150;18.136;2024-01-16T12:13:21;2.80;;;1.30;;
79375;SDS011;68846;53.150;18.136;2024-01-16T12:15:58;1.80;;;1.00;;
79375;SDS011;68846;53.150;18.136;2024-01-16T12:18:27;1.70;;;1.00;;
79375;SDS011;68846;53.150;18.136;2024-01-16T12:20:55;2.60;;;1.40;;
79375;SDS011;68846;53.150;18.136;2024-01-16T12:23:23;3.60;;;1.60;;
79375;SDS011;68846;53.150;18.136;2024-01-16T12:25:52;1.30;;;0.80;;
79375;SDS011;68846;53.150;18.136;2024-01-16T12:28:26;2.80;;;1.10;;
79375;SDS011;68846;53.150;18.136;2024-01-16T12:30:54;3.50;;;1.20;;
79375;SDS011;68846;53.150;18.136;2024-01-16T12:33:22;2.50;;;1.30;;
79375;SDS011;68846;53.150;18.136;2024-01-16T12:35:50;3.80;;;0.80;;
79375;SDS011;68846;53.150;18.136;2024-01-16T12:38:29;1.40;;;0.90;;
79375;SDS011;68846;53.150;18.136;2024-01-16T12:40:58;1.10;;;0.70;;
79375;SDS011;68846;53.150;18.136;2024-01-16T12:43:29;1.80;;;0.90;;
79375;SDS011;68846;53.150;18.136;2024-01-16T12:45:57;1.80;;;1.20;;
79375;SDS011;68846;53.150;18.136;2024-01-16T12:48:25;2.80;;;1.00;;
79375;SDS011;68846;53.150;18.136;2024-01-16T12:51:02;1.60;;;0.80;;
79375;SDS011;68846;53.150;18.136;2024-01-16T12:53:34;1.50;;;1.00;;
79375;SDS011;68846;53.150;18.136;2024-01-16T12:56:04;2.50;;;1.00;;
79375;SDS011;68846;53.150;18.136;2024-01-16T12:58:33;1.90;;;0.80;;
79375;SDS011;68846;53.150;18.136;2024-01-16T13:01:25;1.50;;;0.90;;
79375;SDS011;68846;53.150;18.136;2024-01-16T13:03:55;2.40;;;1.10;;
79375;SDS011;68846;53.150;18.136;2024-01-16T13:06:23;3.00;;;1.20;;
79375;SDS011;68846;53.150;18.136;2024-01-16T13:08:50;1.50;;;1.00;;
79375;SDS011;68846;53.150;18.136;2024-01-16T13:11:50;3.70;;;0.90;;
79375;SDS011;68846;53.150;18.136;2024-01-16T13:14:20;1.80;;;1.00;;
79375;SDS011;68846;53.150;18.136;2024-01-16T13:16:50;2.80;;;1.20;;
79375;SDS011;68846;53.150;18.136;2024-01-16T13:19:19;2.10;;;1.10;;
79375;SDS011;68846;53.150;18.136;2024-01-16T13:21:48;1.40;;;0.80;;
79375;SDS011;68846;53.150;18.136;2024-01-16T13:24:16;2.90;;;0.80;;
79375;SDS011;68846;53.150;18.136;2024-01-16T13:26:47;2.40;;;1.20;;
79375;SDS011;68846;53.150;18.136;2024-01-16T13:29:15;1.80;;;0.90;;
79375;SDS011;68846;53.150;18.136;2024-01-16T13:31:43;2.00;;;1.20;;
79375;SDS011;68846;53.150;18.136;2024-01-16T13:34:11;3.70;;;1.00;;
79375;SDS011;68846;53.150;18.136;2024-01-16T13:36:39;1.50;;;0.80;;
79375;SDS011;68846;53.150;18.136;2024-01-16T13:39:07;2.60;;;1.10;;
79375;SDS011;68846;53.150;18.136;2024-01-16T13:41:41;2.00;;;0.80;;
79375;SDS011;68846;53.150;18.136;2024-01-16T13:44:10;1.20;;;0.60;;
79375;SDS011;68846;53.150;18.136;2024-01-16T13:46:40;1.80;;;0.80;;
79375;SDS011;68846;53.150;18.136;2024-01-16T13:49:08;2.60;;;1.10;;
79375;SDS011;68846;53.150;18.136;2024-01-16T13:51:36;1.00;;;0.70;;
79375;SDS011;68846;53.150;18.136;2024-01-16T13:54:03;3.10;;;0.90;;
79375;SDS011;68846;53.150;18.136;2024-01-16T13:56:31;3.20;;;1.40;;
79375;SDS011;68846;53.150;18.136;2024-01-16T13:59:01;2.60;;;1.10;;
79375;SDS011;68846;53.150;18.136;2024-01-16T14:01:29;3.00;;;1.30;;
79375;SDS011;68846;53.150;18.136;2024-01-16T14:03:57;3.30;;;1.30;;
79375;SDS011;68846;53.150;18.136;2024-01-16T14:06:25;1.60;;;1.00;;
79375;SDS011;68846;53.150;18.136;2024-01-16T14:08:53;3.30;;;1.30;;
79375;SDS011;68846;53.150;18.136;2024-01-16T14:11:21;2.50;;;1.50;;
79375;SDS011;68846;53.150;18.136;2024-01-16T14:13:49;3.90;;;1.90;;
79375;SDS011;68846;53.150;18.136;2024-01-16T14:16:17;5.50;;;1.60;;
79375;SDS011;68846;53.150;18.136;2024-01-16T14:18:46;2.20;;;1.20;;
79375;SDS011;68846;53.150;18.136;2024-01-16T14:21:13;3.60;;;1.40;;
79375;SDS011;68846;53.150;18.136;2024-01-16T14:23:41;2.70;;;1.60;;
79375;SDS011;68846;53.150;18.136;2024-01-16T14:26:09;3.50;;;1.30;;
79375;SDS011;68846;53.150;18.136;2024-01-16T14:28:37;4.90;;;1.90;;
79375;SDS011;68846;53.150;18.136;2024-01-16T14:31:04;3.30;;;1.30;;
79375;SDS011;68846;53.150;18.136;2024-01-16T14:33:34;4.50;;;1.70;;
79375;SDS011;68846;53.150;18.136;2024-01-16T14:36:02;3.30;;;1.30;;
79375;SDS011;68846;53.150;18.136;2024-01-16T14:38:32;4.40;;;2.10;;
79375;SDS011;68846;53.150;18.136;2024-01-16T14:41:00;5.70;;;1.80;;
79375;SDS011;68846;53.150;18.136;2024-01-16T14:43:28;7.20;;;2.10;;
79375;SDS011;68846;53.150;18.136;2024-01-16T14:45:57;4.80;;;1.70;;
79375;SDS011;68846;53.150;18.136;2024-01-16T14:48:25;6.00;;;2.00;;
79375;SDS011;68846;53.150;18.136;2024-01-16T14:50:53;3.90;;;2.00;;
79375;SDS011;68846;53.150;18.136;2024-01-16T14:53:23;4.50;;;1.90;;
79375;SDS011;68846;53.150;18.136;2024-01-16T14:55:51;3.40;;;1.80;;
79375;SDS011;68846;53.150;18.136;2024-01-16T14:58:21;6.60;;;1.90;;
79375;SDS011;68846;53.150;18.136;2024-01-16T15:00:50;5.50;;;1.90;;
79375;SDS011;68846;53.150;18.136;2024-01-16T15:03:19;4.60;;;1.90;;
79375;SDS011;68846;53.150;18.136;2024-01-16T15:05:47;5.80;;;2.10;;
79375;SDS011;68846;53.150;18.136;2024-01-16T15:08:16;4.20;;;2.10;;
79375;SDS011;68846;53.150;18.136;2024-01-16T15:10:43;3.40;;;1.80;;
79375;SDS011;68846;53.150;18.136;2024-01-16T15:13:13;6.70;;;2.00;;
79375;SDS011;68846;53.150;18.136;2024-01-16T15:15:40;3.70;;;1.80;;
79375;SDS011;68846;53.150;18.136;2024-01-16T15:18:09;4.70;;;2.20;;
79375;SDS011;68846;53.150;18.136;2024-01-16T15:20:36;3.50;;;1.90;;
79375;SDS011;68846;53.150;18.136;2024-01-16T15:23:05;4.50;;;2.10;;
79375;SDS011;68846;53.150;18.136;2024-01-16T15:25:33;6.50;;;2.50;;
79375;SDS011;68846;53.150;18.136;2024-01-16T15:28:00;4.40;;;2.40;;
79375;SDS011;68846;53.150;18.136;2024-01-16T15:30:28;5.10;;;2.20;;
79375;SDS011;68846;53.150;18.136;2024-01-16T15:33:00;4.40;;;2.20;;
79375;SDS011;68846;53.150;18.136;2024-01-16T15:35:31;3.40;;;1.60;;
79375;SDS011;68846;53.150;18.136;2024-01-16T15:37:59;6.50;;;1.90;;
79375;SDS011;68846;53.150;18.136;2024-01-16T15:40:30;6.00;;;2.70;;
79375;SDS011;68846;53.150;18.136;2024-01-16T15:42:58;6.00;;;2.20;;